Time;durP1;ratioP1;P1;durP2;ratioP2;P2;SDS_P1;SDS_P2;PMS_P1;PMS_P2;Temp;Humidity;BMP_temperature;BMP_pressure;BME280_temperature;BME280_humidity;BME280_pressure;Samples;Min_cycle;Max_cycle;Signal;HPM_P1;HPM_P2
2021/12/04 00:01:48;;;;;;;13.25;7.15;;;;;;;-0.39;86.34;99736.13;6300907;22;20458;-76
2021/12/04 00:04:21;;;;;;;13.82;6.70;;;;;;;-0.40;86.02;99733.56;6299544;22;20022;-76
2021/12/04 00:06:49;;;;;;;13.13;7.00;;;;;;;-0.42;86.04;99735.22;6303017;22;20094;-77
2021/12/04 00:09:17;;;;;;;19.92;9.18;;;;;;;-0.44;86.22;99736.88;6303759;22;20007;-76
2021/12/04 00:11:52;;;;;;;13.80;6.85;;;;;;;-0.44;86.07;99731.78;6299263;22;20039;-76
2021/12/04 00:14:19;;;;;;;13.13;6.80;;;;;;;-0.47;86.21;99712.22;6301113;22;20031;-76
2021/12/04 00:16:49;;;;;;;14.57;8.45;;;;;;;-0.50;85.90;99714.69;6304647;22;20090;-76
2021/12/04 00:19:17;;;;;;;14.40;6.07;;;;;;;-0.50;86.03;99712.16;6304675;22;20316;-76
2021/12/04 00:21:45;;;;;;;13.90;8.02;;;;;;;-0.50;86.00;99701.13;6302153;22;20090;-76
2021/12/04 00:24:13;;;;;;;12.60;7.07;;;;;;;-0.50;86.30;99703.66;6303045;22;20054;-76
2021/12/04 00:26:40;;;;;;;14.10;7.85;;;;;;;-0.52;86.36;99702.75;6303869;22;20041;-77
2021/12/04 00:29:08;;;;;;;19.13;8.10;;;;;;;-0.53;86.39;99701.03;6304015;22;20015;-76
2021/12/04 00:31:35;;;;;;;16.58;7.43;;;;;;;-0.52;86.31;99707.84;6303037;22;20090;-76
2021/12/04 00:34:04;;;;;;;13.68;7.43;;;;;;;-0.54;86.51;99709.50;6298919;22;20016;-76
2021/12/04 00:36:37;;;;;;;15.90;7.32;;;;;;;-0.58;86.26;99708.56;6303382;22;20094;-76
2021/12/04 00:50:06;;;;;;;18.60;8.32;;;;;;;-0.58;88.04;99702.63;6303240;22;20026;-76
2021/12/04 00:52:33;;;;;;;15.00;7.63;;;;;;;-0.59;88.67;99706.00;6295014;22;20012;-75
2021/12/04 00:55:01;;;;;;;18.08;8.30;;;;;;;-0.63;89.13;99711.03;6303405;22;20019;-76
2021/12/04 00:57:28;;;;;;;23.27;11.13;;;;;;;-0.65;89.12;99706.72;6304065;22;20026;-76
2021/12/04 00:59:55;;;;;;;21.85;9.77;;;;;;;-0.66;89.41;99700.78;6304301;22;20738;-75
2021/12/04 01:02:22;;;;;;;18.95;9.02;;;;;;;-0.67;88.79;99699.06;6302962;22;20055;-77
2021/12/04 01:04:51;;;;;;;23.52;10.10;;;;;;;-0.68;88.67;99686.31;6299654;22;20046;-75
2021/12/04 01:07:21;;;;;;;19.15;8.35;;;;;;;-0.67;88.60;99683.78;6302937;22;20015;-76
2021/12/04 01:09:48;;;;;;;17.52;8.52;;;;;;;-0.66;88.67;99688.06;6303940;22;20012;-75
2021/12/04 01:12:16;;;;;;;16.95;7.78;;;;;;;-0.65;88.28;99679.59;6294722;22;20022;-76
2021/12/04 01:14:44;;;;;;;19.50;8.93;;;;;;;-0.65;87.86;99677.06;6303219;22;20011;-75
2021/12/04 01:17:11;;;;;;;20.52;10.77;;;;;;;-0.63;87.75;99672.00;6303503;22;20022;-76
2021/12/04 01:19:38;;;;;;;13.50;8.20;;;;;;;-0.64;87.70;99668.59;6302403;22;20023;-76
2021/12/04 01:22:07;;;;;;;17.73;8.25;;;;;;;-0.64;87.82;99668.59;6297088;22;20113;-76
2021/12/04 01:24:36;;;;;;;15.10;7.38;;;;;;;-0.65;87.28;99661.78;6297769;22;20026;-76
2021/12/04 01:27:04;;;;;;;17.75;6.90;;;;;;;-0.64;87.10;99658.41;6304128;22;20477;-76
2021/12/04 01:29:31;;;;;;;14.80;6.78;;;;;;;-0.65;87.01;99661.78;6302839;22;20011;-76
2021/12/04 01:31:59;;;;;;;14.77;7.20;;;;;;;-0.65;87.01;99660.91;6297718;22;20425;-77
2021/12/04 01:34:26;;;;;;;14.73;6.78;;;;;;;-0.65;87.09;99656.69;6301879;22;20054;-76
2021/12/04 01:36:53;;;;;;;13.88;6.75;;;;;;;-0.66;86.73;99654.97;6302785;22;20090;-76
2021/12/04 01:39:20;;;;;;;13.18;6.90;;;;;;;-0.66;86.58;99660.06;6303344;22;20090;-76
2021/12/04 01:41:49;;;;;;;14.05;7.13;;;;;;;-0.65;86.46;99656.69;6299859;22;20102;-76
2021/12/04 01:44:17;;;;;;;16.77;7.53;;;;;;;-0.66;87.07;99654.97;6301226;22;20047;-76
2021/12/04 01:46:44;;;;;;;12.25;6.88;;;;;;;-0.65;86.79;99645.66;6303707;22;20047;-78
2021/12/04 01:49:11;;;;;;;17.40;8.00;;;;;;;-0.66;86.27;99644.78;6302337;22;20012;-75
2021/12/04 01:51:38;;;;;;;13.88;7.15;;;;;;;-0.66;86.72;99637.16;6301106;22;20038;-76
2021/12/04 01:54:06;;;;;;;19.35;8.00;;;;;;;-0.66;86.73;99629.53;6296561;22;20458;-76
2021/12/04 01:56:34;;;;;;;20.25;11.55;;;;;;;-0.68;86.43;99628.63;6303779;22;20015;-76
2021/12/04 01:59:04;;;;;;;17.23;8.30;;;;;;;-0.68;86.49;99626.09;6303422;22;20454;-76
2021/12/04 02:01:32;;;;;;;19.60;9.82;;;;;;;-0.69;86.36;99629.47;6299425;22;20106;-76
2021/12/04 02:03:59;;;;;;;21.05;10.07;;;;;;;-0.70;86.64;99622.66;6300960;22;20027;-76
2021/12/04 02:06:26;;;;;;;18.30;10.10;;;;;;;-0.69;86.53;99615.88;6303228;22;20086;-76
2021/12/04 02:08:53;;;;;;;17.13;9.70;;;;;;;-0.71;86.77;99610.75;6303388;22;20015;-76
2021/12/04 02:11:21;;;;;;;15.57;8.25;;;;;;;-0.71;87.13;99615.84;6295576;22;20848;-76
2021/12/04 02:13:48;;;;;;;19.45;9.15;;;;;;;-0.72;87.01;99608.19;6302167;22;20037;-76
2021/12/04 02:16:18;;;;;;;15.38;8.30;;;;;;;-0.73;87.16;99601.38;6302821;22;20015;-75
2021/12/04 02:18:46;;;;;;;13.77;7.45;;;;;;;-0.76;87.36;99602.19;6303600;22;20030;-76
2021/12/04 02:21:15;;;;;;;19.20;9.60;;;;;;;-0.77;87.62;99607.25;6301846;22;20058;-75
2021/12/04 02:23:43;;;;;;;18.15;9.40;;;;;;;-0.79;87.61;99599.59;6296728;22;20332;-76
2021/12/04 02:26:12;;;;;;;20.88;11.38;;;;;;;-0.81;87.95;99597.84;6303618;22;20015;-76
2021/12/04 02:28:39;;;;;;;15.40;8.50;;;;;;;-0.77;87.39;99600.47;6300612;22;20011;-76
2021/12/04 02:31:06;;;;;;;16.75;8.60;;;;;;;-0.77;87.69;99594.53;6302353;22;20398;-75
2021/12/04 02:33:33;;;;;;;15.38;7.85;;;;;;;-0.76;87.78;99602.19;6296683;22;20015;-76
2021/12/04 02:36:02;;;;;;;14.90;7.97;;;;;;;-0.77;87.59;99599.63;6303192;22;20011;-76
2021/12/04 02:38:31;;;;;;;15.35;8.40;;;;;;;-0.78;88.06;99595.34;6302790;22;20796;-76
2021/12/04 02:41:01;;;;;;;17.60;7.97;;;;;;;-0.76;87.69;99591.16;6302181;22;20041;-76
2021/12/04 02:43:28;;;;;;;15.73;8.10;;;;;;;-0.76;87.41;99597.09;6300080;22;20019;-76
2021/12/04 02:45:55;;;;;;;17.52;7.70;;;;;;;-0.77;87.39;99590.28;6302637;22;20026;-76
2021/12/04 02:48:23;;;;;;;16.35;8.13;;;;;;;-0.76;87.56;99586.91;6303021;22;20326;-76
2021/12/04 02:50:50;;;;;;;14.68;7.32;;;;;;;-0.74;87.18;99582.72;6298166;22;20015;-76
2021/12/04 02:53:18;;;;;;;18.13;8.20;;;;;;;-0.75;87.32;99573.38;6297136;22;20022;-76
2021/12/04 02:55:47;;;;;;;16.75;8.57;;;;;;;-0.74;86.75;99570.00;6302548;22;20065;-76
2021/12/04 02:58:16;;;;;;;15.50;7.85;;;;;;;-0.74;86.96;99570.00;6302864;22;20015;-76
2021/12/04 03:00:47;;;;;;;16.42;8.27;;;;;;;-0.73;86.96;99575.94;6301880;22;20374;-76
2021/12/04 03:03:15;;;;;;;25.13;12.73;;;;;;;-0.74;86.59;99564.91;6288878;22;20016;-76
2021/12/04 03:05:45;;;;;;;22.13;10.82;;;;;;;-0.75;86.15;99555.56;6302938;22;20050;-76
2021/12/04 03:08:12;;;;;;;23.55;12.60;;;;;;;-0.73;86.20;99561.53;6302190;22;20058;-76
2021/12/04 03:10:40;;;;;;;22.13;10.65;;;;;;;-0.75;86.36;99537.75;6302021;22;20011;-75
2021/12/04 03:13:10;;;;;;;20.50;11.15;;;;;;;-0.75;86.36;99542.81;6289553;22;20058;-76
2021/12/04 03:15:41;;;;;;;16.88;9.57;;;;;;;-0.75;86.26;99550.47;6301998;22;20019;-75
2021/12/04 03:18:09;;;;;;;23.33;13.50;;;;;;;-0.78;85.90;99539.38;6303577;22;20086;-75
2021/12/04 03:20:41;;;;;;;19.75;9.13;;;;;;;-0.73;86.00;99545.41;6301982;22;20034;-75
2021/12/04 03:23:15;;;;;;;18.13;9.30;;;;;;;-0.73;85.78;99551.34;6302573;22;20055;-75
2021/12/04 03:25:46;;;;;;;19.30;11.18;;;;;;;-0.72;85.75;99558.16;6301911;22;20069;-76
2021/12/04 03:28:17;;;;;;;18.23;8.88;;;;;;;-0.70;85.62;99560.72;6303023;22;20011;-74
2021/12/04 03:30:48;;;;;;;20.40;11.10;;;;;;;-0.71;85.63;99554.78;6298184;22;20458;-75
2021/12/04 03:41:29;;;;;;;26.95;14.90;;;;;;;-0.69;85.67;99548.03;6301650;22;20030;-76
2021/12/04 03:43:57;;;;;;;18.30;10.20;;;;;;;-0.68;85.93;99544.66;6295483;22;20018;-76
2021/12/04 03:46:26;;;;;;;18.27;9.80;;;;;;;-0.69;85.05;99537.84;6304682;22;20011;-76
2021/12/04 03:48:53;;;;;;;22.02;13.20;;;;;;;-0.67;85.61;99540.41;6304735;22;20015;-75
2021/12/04 03:51:22;;;;;;;38.17;18.80;;;;;;;-0.67;85.23;99537.88;6297016;22;20017;-76
2021/12/04 03:53:50;;;;;;;26.67;14.50;;;;;;;-0.67;85.40;99530.25;6295492;22;20481;-76
2021/12/04 03:56:21;;;;;;;25.10;12.25;;;;;;;-0.65;85.64;99526.03;6304235;22;20069;-75
2021/12/04 03:58:48;;;;;;;25.30;13.40;;;;;;;-0.66;85.35;99522.63;6305141;22;20015;-75
2021/12/04 04:01:17;;;;;;;28.40;13.13;;;;;;;-0.68;85.59;99514.13;6303310;22;20046;-76
2021/12/04 04:03:45;;;;;;;30.38;16.95;;;;;;;-0.65;85.48;99526.88;6294914;22;20015;-75
2021/12/04 04:06:13;;;;;;;28.08;15.32;;;;;;;-0.65;85.66;99524.34;6305122;22;20069;-75
2021/12/04 04:08:40;;;;;;;29.33;15.23;;;;;;;-0.65;85.58;99534.53;6302853;22;20027;-74
2021/12/04 04:11:08;;;;;;;23.35;11.93;;;;;;;-0.64;85.29;99518.41;6302913;22;20015;-74
2021/12/04 04:13:36;;;;;;;25.35;13.98;;;;;;;-0.62;85.54;99513.34;6298134;22;20019;-75
2021/12/04 04:16:04;;;;;;;23.48;12.25;;;;;;;-0.60;85.67;99515.94;6304275;22;20462;-75
2021/12/04 04:18:34;;;;;;;19.30;9.80;;;;;;;-0.61;85.52;99511.66;6304225;22;20094;-76
2021/12/04 04:21:01;;;;;;;27.48;12.70;;;;;;;-0.61;85.60;99515.06;6304013;22;20111;-76
2021/12/04 04:23:29;;;;;;;21.77;11.73;;;;;;;-0.59;85.53;99510.00;6296283;22;20458;-75
2021/12/04 04:25:56;;;;;;;29.60;15.15;;;;;;;-0.58;85.70;99504.09;6304122;22;20489;-76
2021/12/04 04:28:23;;;;;;;30.67;13.80;;;;;;;-0.58;85.83;99516.81;6303785;22;20465;-76
2021/12/04 04:30:51;;;;;;;31.73;17.40;;;;;;;-0.58;85.84;99514.25;6303179;22;20046;-76
2021/12/04 04:33:18;;;;;;;27.05;13.38;;;;;;;-0.56;85.73;99517.69;6303777;22;20043;-77
2021/12/04 04:35:58;;;;;;;27.42;13.73;;;;;;;-0.55;86.00;99520.25;6302820;22;20090;-76
2021/12/04 04:38:34;;;;;;;36.97;19.35;;;;;;;-0.54;85.95;99510.94;6302825;22;20015;-75
2021/12/04 05:11:15;;;;;;;26.05;14.90;;;;;;;-0.51;86.91;99495.75;6302010;22;20030;-77
2021/12/04 05:13:43;;;;;;;17.42;10.10;;;;;;;-0.51;87.17;99486.41;6303303;22;20086;-77
2021/12/04 05:16:15;;;;;;;28.95;15.55;;;;;;;-0.49;87.36;99496.63;6301828;22;20446;-77
2021/12/04 05:18:51;;;;;;;15.90;8.73;;;;;;;-0.50;87.18;99497.47;6303971;22;20372;-77
2021/12/04 05:21:19;;;;;;;16.83;9.98;;;;;;;-0.49;87.01;99491.53;6302446;22;20533;-78
2021/12/04 05:23:49;;;;;;;19.50;10.80;;;;;;;-0.48;87.33;99496.66;6300592;22;20025;-77
2021/12/04 05:26:19;;;;;;;16.88;9.40;;;;;;;-0.48;87.03;99496.66;6303408;22;20026;-77
2021/12/04 05:28:47;;;;;;;19.25;10.35;;;;;;;-0.47;87.20;99497.50;6303617;22;20030;-77
2021/12/04 05:31:15;;;;;;;21.00;11.50;;;;;;;-0.46;87.30;99499.22;6299236;22;20422;-77
2021/12/04 05:33:44;;;;;;;14.93;9.02;;;;;;;-0.47;87.18;99498.34;6299935;22;20060;-77
2021/12/04 05:36:12;;;;;;;18.63;11.43;;;;;;;-0.46;87.29;99497.53;6302257;22;20082;-77
2021/12/04 05:38:39;;;;;;;20.25;10.90;;;;;;;-0.43;87.31;99494.16;6303868;22;20022;-77
2021/12/04 05:41:08;;;;;;;23.02;11.80;;;;;;;-0.43;87.33;99495.03;6300861;22;20047;-77
2021/12/04 05:43:36;;;;;;;17.27;9.43;;;;;;;-0.45;87.19;99495.84;6297615;22;20022;-77
2021/12/04 05:46:11;;;;;;;20.63;10.27;;;;;;;-0.45;87.11;99500.94;6302887;22;20018;-77
2021/12/04 05:48:44;;;;;;;19.25;11.43;;;;;;;-0.43;87.29;99504.34;6304354;22;20012;-77
2021/12/04 05:51:30;;;;;;;24.45;12.02;;;;;;;-0.44;87.35;99497.56;6301684;22;20011;-77
2021/12/04 05:54:04;;;;;;;24.55;14.32;;;;;;;-0.44;87.33;99497.56;6297940;22;20458;-77
2021/12/04 05:56:36;;;;;;;17.13;10.15;;;;;;;-0.43;87.38;99496.72;6304016;22;20064;-77
2021/12/04 05:59:05;;;;;;;20.00;12.13;;;;;;;-0.46;87.49;99494.13;6303332;22;20019;-77
2021/12/04 06:01:33;;;;;;;23.25;12.20;;;;;;;-0.46;87.51;99489.03;6301489;22;20474;-77
2021/12/04 06:04:00;;;;;;;20.33;11.73;;;;;;;-0.45;87.71;99490.75;6292343;22;20019;-77
2021/12/04 06:06:28;;;;;;;18.33;10.25;;;;;;;-0.47;87.43;99492.41;6303791;22;20011;-77
2021/12/04 06:08:55;;;;;;;18.38;10.18;;;;;;;-0.47;87.82;99492.41;6303348;22;20018;-77
2021/12/04 06:11:23;;;;;;;18.35;9.43;;;;;;;-0.47;87.93;99492.41;6298184;22;20082;-77
2021/12/04 06:13:52;;;;;;;16.65;9.10;;;;;;;-0.47;88.39;99492.41;6299122;22;20011;-77
2021/12/04 06:16:19;;;;;;;20.45;11.35;;;;;;;-0.48;88.06;99490.69;6302913;22;20011;-77
2021/12/04 06:18:51;;;;;;;21.25;11.35;;;;;;;-0.47;88.25;99489.88;6303250;22;20094;-77
2021/12/04 06:24:04;;;;;;;17.15;9.68;;;;;;;-0.46;88.20;99494.13;6292565;22;20033;-76
2021/12/04 06:26:31;;;;;;;17.80;9.25;;;;;;;-0.47;88.06;99497.50;6301935;22;20026;-76
2021/12/04 06:29:00;;;;;;;17.02;9.52;;;;;;;-0.44;88.39;99497.56;6300836;22;20034;-76
2021/12/04 06:31:29;;;;;;;15.20;8.68;;;;;;;-0.46;88.30;99483.94;6288546;22;20458;-76
2021/12/04 06:33:57;;;;;;;17.30;9.80;;;;;;;-0.46;88.50;99489.03;6300689;22;20015;-76
2021/12/04 06:36:25;;;;;;;17.98;10.15;;;;;;;-0.43;88.38;99499.25;6301657;22;20051;-76
2021/12/04 06:38:52;;;;;;;14.77;8.90;;;;;;;-0.44;88.33;99497.56;6299647;22;20022;-76
2021/12/04 06:41:19;;;;;;;15.13;8.40;;;;;;;-0.42;88.33;99500.97;6298617;22;20016;-76
2021/12/04 06:43:48;;;;;;;16.60;9.18;;;;;;;-0.41;88.85;99507.78;6297216;22;20073;-76
2021/12/04 06:46:18;;;;;;;15.63;10.15;;;;;;;-0.40;88.75;99496.78;6299647;22;20015;-76
2021/12/04 06:48:57;;;;;;;17.05;9.52;;;;;;;-0.41;88.79;99502.69;6300108;22;20023;-76
2021/12/04 06:51:28;;;;;;;14.68;9.23;;;;;;;-0.41;88.89;99511.19;6298290;22;20019;-76
2021/12/04 06:53:59;;;;;;;19.98;9.48;;;;;;;-0.41;89.02;99508.63;6295979;22;20054;-76
2021/12/04 06:56:32;;;;;;;18.85;10.38;;;;;;;-0.42;89.25;99508.63;6301722;22;20015;-76
2021/12/04 06:59:01;;;;;;;16.25;9.45;;;;;;;-0.41;89.39;99515.41;6301748;22;20076;-77
2021/12/04 07:01:29;;;;;;;17.63;10.85;;;;;;;-0.40;89.36;99512.03;6300547;22;20572;-74
2021/12/04 07:03:57;;;;;;;15.68;9.50;;;;;;;-0.39;89.82;99516.31;6299210;22;20015;-76
2021/12/04 07:06:24;;;;;;;17.45;10.35;;;;;;;-0.38;89.61;99523.97;6301446;22;20015;-76
2021/12/04 07:08:51;;;;;;;16.63;9.63;;;;;;;-0.39;89.52;99516.31;6299359;22;20016;-77
2021/12/04 07:11:18;;;;;;;17.60;10.13;;;;;;;-0.39;89.67;99512.06;6299845;22;20015;-76
2021/12/04 07:13:45;;;;;;;16.60;9.82;;;;;;;-0.40;89.77;99509.50;6296012;22;20106;-77
2021/12/04 07:16:16;;;;;;;16.00;9.88;;;;;;;-0.39;89.96;99513.75;6302809;22;20061;-76
2021/12/04 07:18:45;;;;;;;18.50;11.07;;;;;;;-0.39;89.84;99506.13;6304747;22;20012;-77
2021/12/04 07:21:12;;;;;;;20.85;11.05;;;;;;;-0.39;90.02;99501.03;6299918;22;20116;-76
2021/12/04 07:23:40;;;;;;;19.65;11.00;;;;;;;-0.39;90.02;99508.66;6301040;22;20111;-76
2021/12/04 07:26:08;;;;;;;20.17;10.45;;;;;;;-0.39;90.22;99511.22;6291288;22;20011;-76
2021/12/04 07:28:36;;;;;;;19.63;10.82;;;;;;;-0.38;90.37;99510.38;6297267;22;20015;-78
2021/12/04 07:31:03;;;;;;;19.63;10.05;;;;;;;-0.38;90.39;99507.84;6302730;22;20134;-79
2021/12/04 07:33:31;;;;;;;15.50;9.80;;;;;;;-0.37;90.44;99509.53;6300758;22;20106;-77
2021/12/04 07:36:00;;;;;;;17.05;9.93;;;;;;;-0.35;90.46;99507.88;6298016;22;20017;-76
2021/12/04 07:38:28;;;;;;;24.20;10.75;;;;;;;-0.37;90.44;99514.63;6302301;22;20024;-78
2021/12/04 07:40:56;;;;;;;15.30;9.65;;;;;;;-0.36;90.55;99503.63;6302601;22;20019;-77
2021/12/04 07:43:23;;;;;;;16.40;9.07;;;;;;;-0.34;90.38;99504.50;6290686;22;20085;-78
2021/12/04 07:45:50;;;;;;;16.75;10.13;;;;;;;-0.32;91.09;99508.78;6302422;22;20051;-78
2021/12/04 07:48:18;;;;;;;17.27;9.60;;;;;;;-0.31;90.70;99509.63;6307643;22;20011;-75
2021/12/04 07:50:45;;;;;;;18.00;10.43;;;;;;;-0.28;90.74;99503.72;6301988;22;20050;-76
2021/12/04 07:53:14;;;;;;;16.95;10.10;;;;;;;-0.27;90.83;99506.31;6297226;22;20011;-78
2021/12/04 07:55:42;;;;;;;16.23;9.90;;;;;;;-0.24;90.90;99510.59;6303134;22;20059;-78
2021/12/04 07:58:09;;;;;;;18.92;10.07;;;;;;;-0.24;90.93;99506.34;6302445;22;20015;-77
2021/12/04 08:00:36;;;;;;;17.92;10.88;;;;;;;-0.23;90.86;99508.06;6302165;22;20012;-75
2021/12/04 08:03:04;;;;;;;19.38;10.77;;;;;;;-0.22;90.48;99504.69;6296062;22;20019;-75
2021/12/04 08:05:31;;;;;;;17.10;9.75;;;;;;;-0.21;90.82;99510.63;6302881;22;20094;-76
2021/12/04 08:08:00;;;;;;;15.63;10.38;;;;;;;-0.19;90.84;99508.97;6303148;22;20094;-78
2021/12/04 08:10:29;;;;;;;19.38;11.13;;;;;;;-0.20;90.88;99508.09;6300160;22;20034;-77
2021/12/04 08:12:58;;;;;;;18.38;10.82;;;;;;;-0.17;91.10;99508.16;6295167;22;20495;-77
2021/12/04 08:15:25;;;;;;;18.65;10.50;;;;;;;-0.14;91.00;99502.25;6303482;22;20371;-76
2021/12/04 08:17:53;;;;;;;17.60;10.95;;;;;;;-0.11;91.14;99513.34;6304131;22;20019;-76
2021/12/04 08:20:20;;;;;;;20.35;11.13;;;;;;;-0.07;91.11;99510.00;6302672;22;20023;-76
2021/12/04 08:22:47;;;;;;;21.02;11.23;;;;;;;-0.05;90.95;99510.88;6294818;22;20530;-77
2021/12/04 08:25:18;;;;;;;18.08;10.65;;;;;;;-0.05;90.74;99513.44;6303042;22;20037;-78
2021/12/04 08:27:48;;;;;;;19.20;11.15;;;;;;;0.02;90.95;99511.00;6304040;22;20023;-78
2021/12/04 08:30:21;;;;;;;21.08;11.05;;;;;;;0.04;90.72;99511.88;6299368;22;20011;-77
2021/12/04 08:32:52;;;;;;;16.80;10.32;;;;;;;0.04;90.91;99517.81;6296608;22;20697;-78
2021/12/04 08:35:19;;;;;;;17.52;10.52;;;;;;;0.08;90.71;99523.81;6300504;22;20011;-77
2021/12/04 08:37:47;;;;;;;19.15;10.43;;;;;;;0.12;91.17;99521.34;6302771;22;20019;-78
2021/12/04 08:40:15;;;;;;;18.00;10.07;;;;;;;0.12;90.69;99525.56;6302245;22;20011;-78
2021/12/04 08:42:43;;;;;;;18.75;10.23;;;;;;;0.12;90.87;99525.56;6297353;22;20022;-77
2021/12/04 08:45:13;;;;;;;16.80;9.77;;;;;;;0.12;90.45;99517.94;6302021;22;20736;-77
2021/12/04 08:47:41;;;;;;;18.05;9.45;;;;;;;0.13;90.90;99527.28;6301345;22;20470;-76
2021/12/04 08:50:11;;;;;;;18.15;10.57;;;;;;;0.16;90.93;99540.06;6300849;22;20327;-76
2021/12/04 08:52:39;;;;;;;19.35;10.68;;;;;;;0.19;91.15;99542.66;6297345;22;20011;-76
2021/12/04 08:55:08;;;;;;;20.88;11.07;;;;;;;0.18;90.83;99535.84;6302473;22;20046;-75
2021/12/04 08:57:35;;;;;;;18.73;10.45;;;;;;;0.20;90.94;99539.28;6300871;22;20022;-78
2021/12/04 09:00:04;;;;;;;19.33;11.05;;;;;;;0.22;91.11;99537.63;6302971;22;20018;-78
2021/12/04 09:02:33;;;;;;;19.98;10.15;;;;;;;0.22;91.48;99532.50;6301669;22;20446;-76
2021/12/04 09:05:01;;;;;;;20.50;11.00;;;;;;;0.26;91.07;99537.66;6301644;22;20019;-75
2021/12/04 09:07:30;;;;;;;18.15;10.23;;;;;;;0.28;90.96;99535.16;6305865;22;20015;-76
2021/12/04 09:09:57;;;;;;;18.15;10.60;;;;;;;0.30;90.94;99536.88;6304404;22;20035;-75
2021/12/04 09:12:26;;;;;;;18.48;10.32;;;;;;;0.31;91.05;99543.69;6293837;22;20015;-76
2021/12/04 09:14:55;;;;;;;20.23;11.10;;;;;;;0.34;90.97;99540.31;6303263;22;20011;-76
2021/12/04 09:17:22;;;;;;;18.27;10.48;;;;;;;0.37;91.11;99542.91;6303629;22;20017;-77
2021/12/04 09:19:51;;;;;;;20.75;12.27;;;;;;;0.38;91.11;99534.44;6301130;22;20017;-76
2021/12/04 09:22:24;;;;;;;17.13;9.77;;;;;;;0.38;90.78;99536.13;6296329;22;20029;-76
2021/12/04 09:24:55;;;;;;;19.83;11.10;;;;;;;0.38;91.07;99531.88;6302896;22;20015;-78
2021/12/04 09:27:35;;;;;;;20.70;10.88;;;;;;;0.40;90.83;99530.22;6304001;22;20097;-78
2021/12/04 09:30:16;;;;;;;20.55;11.90;;;;;;;0.44;91.13;99531.97;6303283;22;20011;-77
2021/12/04 10:00:38;;;;;;;18.23;10.27;;;;;;;0.75;90.63;99545.13;6300739;22;20331;-78
2021/12/04 10:03:22;;;;;;;18.20;11.45;;;;;;;0.81;90.43;99545.19;6295296;22;20015;-77
2021/12/04 10:12:04;;;;;;;17.33;10.32;;;;;;;0.99;89.49;99540.28;6300876;22;20019;-79
2021/12/04 10:17:48;;;;;;;20.45;10.65;;;;;;;1.02;89.45;99535.22;6280157;22;20534;-78
2021/12/04 10:23:20;;;;;;;16.67;10.48;;;;;;;1.08;89.31;99529.34;6298635;22;20015;-81
2021/12/04 10:34:15;;;;;;;19.35;12.48;;;;;;;1.15;88.71;99528.56;6301132;22;20462;-76
2021/12/04 10:36:43;;;;;;;22.95;12.35;;;;;;;1.14;88.74;99530.25;6303004;22;20102;-78
2021/12/04 10:39:12;;;;;;;16.55;10.85;;;;;;;1.17;89.05;99524.34;6303103;22;20086;-77
2021/12/04 10:41:43;;;;;;;17.38;11.07;;;;;;;1.18;88.92;99526.91;6301865;22;20019;-76
2021/12/04 10:44:18;;;;;;;17.48;10.60;;;;;;;1.17;89.06;99520.09;6299656;22;20019;-76
2021/12/04 10:47:00;;;;;;;17.35;10.77;;;;;;;1.20;89.10;99530.31;6302345;22;20017;-78
2021/12/04 10:49:53;;;;;;;16.08;9.30;;;;;;;1.22;89.30;99533.75;6301602;22;20489;-76
2021/12/04 10:52:30;;;;;;;16.25;9.55;;;;;;;1.29;88.72;99528.69;6282804;22;20011;-76
2021/12/04 10:55:14;;;;;;;16.85;10.02;;;;;;;1.30;88.84;99530.41;6301357;22;20015;-76
2021/12/04 11:00:39;;;;;;;14.73;9.63;;;;;;;1.22;88.61;99527.78;6297959;22;20437;-78
2021/12/04 11:03:18;;;;;;;17.25;9.85;;;;;;;1.22;89.16;99528.63;6276883;22;20069;-77
2021/12/04 11:19:17;;;;;;;17.33;9.45;;;;;;;1.31;88.93;99547.44;5186024;27;20903;-76
2021/12/04 11:22:07;;;;;;;16.73;9.88;;;;;;;1.32;88.56;99544.91;5161653;27;20047;-76
2021/12/04 11:27:50;;;;;;;16.60;9.25;;;;;;;1.38;88.78;99544.09;5159694;27;20039;-78
2021/12/04 11:38:43;;;;;;;16.67;9.18;;;;;;;1.45;88.59;99540.75;5123741;27;20076;-77
2021/12/04 11:41:21;;;;;;;20.08;9.00;;;;;;;1.53;88.46;99539.97;5163931;27;20553;-78
2021/12/04 11:43:54;;;;;;;20.70;10.02;;;;;;;1.48;88.54;99536.53;5155008;27;20469;-77
2021/12/04 11:46:28;;;;;;;16.42;9.00;;;;;;;1.51;88.51;99545.91;5165965;27;20409;-76
2021/12/04 11:48:59;;;;;;;17.08;9.60;;;;;;;1.52;88.55;99550.19;5168246;27;20134;-76
2021/12/04 11:51:28;;;;;;;17.33;9.75;;;;;;;1.52;88.68;99543.38;5144819;27;20042;-78
2021/12/04 11:53:56;;;;;;;17.00;10.13;;;;;;;1.51;88.25;99538.25;5163289;27;20065;-76
2021/12/04 11:56:27;;;;;;;25.65;12.95;;;;;;;1.52;88.35;99537.41;5167012;27;20035;-77
2021/12/04 11:58:55;;;;;;;16.10;9.15;;;;;;;1.47;88.05;99536.53;5165619;27;20038;-75
2021/12/04 12:01:31;;;;;;;15.98;9.38;;;;;;;1.41;88.70;99536.47;5160965;27;20042;-79
2021/12/04 12:04:02;;;;;;;18.05;9.00;;;;;;;1.37;88.97;99537.28;5148426;27;20051;-74
2021/12/04 12:06:33;;;;;;;18.40;10.10;;;;;;;1.35;88.62;99533.84;5165511;27;20050;-77
2021/12/04 12:09:06;;;;;;;16.55;10.20;;;;;;;1.35;89.14;99536.41;5167239;27;20446;-75
2021/12/04 12:11:36;;;;;;;17.65;9.45;;;;;;;1.38;88.74;99536.44;5160763;27;20074;-77
2021/12/04 12:14:08;;;;;;;16.33;10.23;;;;;;;1.42;88.88;99538.19;5149048;27;20121;-75
2021/12/04 12:16:40;;;;;;;17.45;10.85;;;;;;;1.43;88.46;99534.78;5163872;27;20108;-79
2021/12/04 12:19:11;;;;;;;18.02;10.32;;;;;;;1.42;88.24;99527.97;5150880;27;20038;-78
2021/12/04 12:21:51;;;;;;;17.65;10.40;;;;;;;1.41;88.74;99528.81;5143799;27;20055;-77
2021/12/04 12:27:38;;;;;;;15.25;8.80;;;;;;;1.37;88.36;99538.13;5151213;27;20046;-76
2021/12/04 12:33:09;;;;;;;13.57;8.00;;;;;;;1.38;88.26;99549.22;5131528;27;20095;-77
2021/12/04 12:38:38;;;;;;;17.10;9.50;;;;;;;1.39;88.43;99550.91;5151041;27;20094;-77
2021/12/04 12:41:08;;;;;;;15.15;8.68;;;;;;;1.40;88.76;99557.75;5145968;27;20039;-78
2021/12/04 12:43:48;;;;;;;14.48;8.25;;;;;;;1.41;88.72;99557.75;5135698;27;20045;-78
2021/12/04 12:46:15;;;;;;;14.93;8.32;;;;;;;1.43;88.80;99552.66;5152127;27;20451;-76
2021/12/04 12:48:49;;;;;;;19.08;9.07;;;;;;;1.44;88.30;99559.47;5151824;27;20054;-77
2021/12/04 12:51:25;;;;;;;15.32;8.55;;;;;;;1.42;88.37;99556.91;5145159;27;20050;-76
2021/12/04 12:53:54;;;;;;;13.15;8.35;;;;;;;1.44;88.81;99557.78;5129638;27;20047;-77
2021/12/04 12:56:23;;;;;;;15.88;8.90;;;;;;;1.46;88.86;99558.66;5152003;27;20039;-76
2021/12/04 12:58:54;;;;;;;16.05;8.77;;;;;;;1.47;89.06;99549.28;5151670;27;20535;-77
2021/12/04 13:12:47;;;;;;;19.17;10.20;;;;;;;1.47;88.54;99559.50;5131963;27;20086;-77
2021/12/04 13:15:16;;;;;;;12.75;7.32;;;;;;;1.44;88.77;99559.47;5150915;27;20493;-76
2021/12/04 13:17:43;;;;;;;13.13;7.25;;;;;;;1.42;88.58;99550.94;5153359;27;20519;-76
2021/12/04 13:20:11;;;;;;;22.17;11.30;;;;;;;1.40;88.86;99552.63;5150335;27;20069;-76
2021/12/04 13:22:38;;;;;;;14.98;7.03;;;;;;;1.34;88.63;99548.31;5149138;27;20074;-76
2021/12/04 13:25:12;;;;;;;15.13;8.13;;;;;;;1.32;88.79;99544.03;5141108;27;20066;-77
2021/12/04 13:30:12;;;;;;;31.27;16.08;;;;;;;1.36;88.95;99548.34;5147742;27;20069;-78
2021/12/04 13:32:42;;;;;;;14.40;8.45;;;;;;;1.37;88.85;99552.59;5148893;27;20485;-76
2021/12/04 13:35:13;;;;;;;16.85;8.95;;;;;;;1.34;89.07;99548.31;5143361;27;20039;-76
2021/12/04 13:37:42;;;;;;;16.60;8.38;;;;;;;1.33;89.20;99540.66;5150183;27;20126;-76
2021/12/04 13:40:14;;;;;;;18.70;10.15;;;;;;;1.30;88.65;99546.59;5141794;27;20046;-76
2021/12/04 13:42:43;;;;;;;15.88;9.35;;;;;;;1.29;88.96;99546.56;5135258;27;20091;-78
2021/12/04 13:45:13;;;;;;;14.50;8.27;;;;;;;1.29;89.23;99544.88;5145170;27;20050;-77
2021/12/04 13:47:41;;;;;;;17.45;9.52;;;;;;;1.26;88.79;99545.69;5144512;27;20498;-76
2021/12/04 13:52:53;;;;;;;18.35;9.73;;;;;;;1.25;89.28;99549.09;5139375;27;20045;-77
2021/12/04 13:55:23;;;;;;;16.83;10.23;;;;;;;1.26;88.89;99555.91;5148975;27;20103;-78
2021/12/04 13:57:51;;;;;;;24.90;12.15;;;;;;;1.27;89.57;99557.63;5146615;27;20047;-77
2021/12/04 14:00:20;;;;;;;11.38;5.55;;;;;;;1.22;88.63;99554.16;5146565;27;20073;-76
2021/12/04 14:02:48;;;;;;;8.77;5.78;;;;;;;1.22;88.76;99559.28;5137341;27;20367;-79
2021/12/04 14:05:18;;;;;;;15.63;8.48;;;;;;;1.17;88.84;99560.91;5146718;27;20047;-77
2021/12/04 14:07:52;;;;;;;13.35;8.15;;;;;;;1.15;89.32;99566.84;5145907;27;20046;-78
2021/12/04 14:10:24;;;;;;;16.40;8.35;;;;;;;1.09;89.77;99560.00;5144523;27;20039;-77